首页
METAR-TAF:

METAR-TAF

机场 :

温贝托·德尔加多机场

里斯本, 葡萄牙

纬度: 38-46N, 经度: 009-08W, 海拔: 114米

当前天气观测

该预报发布于14分钟前的17:30 UTC
风速11节,风向西
温度 26°C
湿度 61%
气压 1014 hPa
能见度10公里或以上
1500米以下无云,无积雨云

METAR: LPPT 231730Z 27011KT CAVOK 26/18 Q1014

时间: 18:44 (17:44 UTC)

预报

该预报发布于44分钟前的17:00 UTC
预报有效从23日的 18点(UTC)到 24日的 24点(UTC)
风速12节,风向西转西南
能见度10公里或以上
1500米以下无云,无积雨云
成为
从 23日的 18点(UTC)到 23日的 21点(UTC)
风速8节,风向西转西北
成为
从 23日的 22点(UTC)到 23日的 24点(UTC)
风速3节,风向多变
成为
从 24日的 01点(UTC)到 24日的 03点(UTC)
风速5节,风向西南
几率 30% :
短暂存在
从 24日的 01点(UTC)到 24日的 07点(UTC)
能见度10公里或以上
多云层高于1000英尺
成为
从 24日的 15点(UTC)到 24日的 17点(UTC)
风速12节,风向西北
成为
从 24日的 21点(UTC)到 24日的 23点(UTC)
能见度10公里或以上
散云层高于1200英尺

TAF: LPPT 231700Z 2318/2424 24012KT CAVOK BECMG 2318/2321 30008KT BECMG 2322/2324 VRB03KT BECMG 2401/2403 23005KT PROB30 TEMPO 2401/2407 9999 BKN010 BECMG 2415/2417 31012KT BECMG 2421/2423 9999 SCT012

超过4000个机场的气象观测和天气预报(METAR&TAF报告)。

可查询的气象台以黄色和红色小点在地图上表示。

将鼠标移到小点上方,可查看气象台名称。

然后点击查看天气观测和预报。

如需切换地图:点击带黑十字的绿色按钮放大地图;点击带横线的绿色按钮缩小地图;或者点击绿色箭头查看邻近地区的地图。


METAR-TAF: